Погода Тупи-Паулистана 2 недели

Сан-Паулу, Бразилия

21 июня-04 июля
  • 21июня
    Сегодня
    +18°
    +32°
    Ясно и безоблачно
    ВремяПогодаТемператураВлажностьДавлениеВетер, м/сВероятность осадков
    00:00Ясно и безоблачно+20°C44 %729 мм2.4 м/с5 %
    03:00Ясно и безоблачно+19°C44 %729 мм2.9 м/с5 %
    06:00Ясно и безоблачно+17°C50 %728 мм3.1 м/с5 %
    09:00Ясно и безоблачно+22°C42 %730 мм3.5 м/с5 %
    12:00Ясно и безоблачно+29°C30 %730 мм3.6 м/с5 %
    15:00Ясно и безоблачно+32°C26 %728 мм4.9 м/с5 %
    18:00Практически безоблачно+27°C33 %727 мм2.1 м/с5 %
    21:00Облачно с прояснениями+24°C43 %728 мм2.2 м/с5 %
  • 22июня
    Суббота
    +19°
    +33°
    Облачно с прояснениями
    ВремяПогодаТемператураВлажностьДавлениеВетер, м/сВероятность осадков
    00:00Ясно и безоблачно+22°C47 %728 мм2.7 м/с5 %
    03:00Небольшая облачность+20°C51 %727 мм3.7 м/с5 %
    06:00Практически безоблачно+19°C54 %727 мм3.7 м/с5 %
    09:00Облачно с прояснениями+22°C45 %729 мм3.3 м/с5 %
    12:00Облачно с прояснениями+30°C31 %729 мм4.7 м/с5 %
    15:00Облачно с прояснениями+32°C25 %727 мм4.6 м/с5 %
    18:00Практически безоблачно+29°C34 %727 мм2.5 м/с5 %
    21:00Практически безоблачно+26°C39 %727 мм3.4 м/с5 %
  • 23июня
    Воскресенье
    +20°
    +34°
    Ясно и безоблачно
    ВремяПогодаТемператураВлажностьДавлениеВетер, м/сВероятность осадков
    00:00Ясно и безоблачно+24°C44 %727 мм2.8 м/с5 %
    03:00Ясно и безоблачно+22°C49 %726 мм2.6 м/с5 %
    06:00Ясно и безоблачно+20°C60 %727 мм2.5 м/с5 %
    09:00Ясно и безоблачно+24°C49 %729 мм2.5 м/с5 %
    12:00Ясно и безоблачно+31°C31 %729 мм3.1 м/с5 %
    15:00Ясно и безоблачно+34°C27 %727 мм3.3 м/с5 %
    18:00Ясно и безоблачно+31°C34 %727 мм2.6 м/с5 %
    21:00Ясно и безоблачно+27°C43 %727 мм2.2 м/с5 %
  • 24июня
    Понедельник
    +20°
    +35°
    Ясно и безоблачно
    ВремяПогодаТемператураВлажностьДавлениеВетер, м/сВероятность осадков
    00:00Ясно и безоблачно+24°C48 %727 мм2.7 м/с5 %
    03:00Ясно и безоблачно+23°C50 %727 мм2.4 м/с5 %
    06:00Ясно и безоблачно+21°C56 %727 мм2.6 м/с5 %
    09:00Ясно и безоблачно+25°C46 %729 мм2.6 м/с5 %
    12:00Ясно и безоблачно+32°C28 %729 мм4.6 м/с5 %
    15:00Ясно и безоблачно+34°C25 %727 мм4.3 м/с5 %
    18:00Ясно и безоблачно+31°C32 %727 мм2.1 м/с5 %
    21:00Ясно и безоблачно+28°C41 %728 мм2.1 м/с5 %
  • 25июня
    Вторник
    +19°
    +34°
    Небольшая облачность
    ВремяПогодаТемператураВлажностьДавлениеВетер, м/сВероятность осадков
    00:00Практически безоблачно+25°C46 %728 мм2.5 м/с5 %
    03:00Ясно и безоблачно+23°C55 %728 мм2.1 м/с5 %
    06:00Ясно и безоблачно+21°C63 %728 мм2.2 м/с5 %
    09:00Ясно и безоблачно+25°C47 %729 мм1.1 м/с5 %
    12:00Ясно и безоблачно+31°C31 %730 мм1.2 м/с5 %
    15:00Небольшая облачность+34°C26 %728 мм1.4 м/с5 %
    18:00Практически безоблачно+31°C33 %728 мм1.1 м/с5 %
    21:00Ясно и безоблачно+27°C42 %729 мм1.6 м/с5 %
Мы используем cookies
Соглашаюсь